Time;durP1;ratioP1;P1;durP2;ratioP2;P2;SDS_P1;SDS_P2;PMS_P1;PMS_P2;Temp;Humidity;BMP_temperature;BMP_pressure;BME280_temperature;BME280_humidity;BME280_pressure;Samples;Min_cycle;Max_cycle;Signal;HPM_P1;HPM_P2
2022/02/08 00:01:31;;;;;;;17.52;2.70;;;;;;;7.33;59.15;101942.16;4943762;28;96698;-78
2022/02/08 00:03:57;;;;;;;20.60;2.58;;;;;;;7.19;59.38;101955.34;4941436;28;99020;-80
2022/02/08 00:06:37;;;;;;;19.23;2.30;;;;;;;7.42;58.66;101955.25;4942296;28;99016;-80
2022/02/08 00:09:06;;;;;;;21.88;2.58;;;;;;;7.29;58.60;101957.06;4944273;28;96838;-79
2022/02/08 00:11:33;;;;;;;17.27;1.92;;;;;;;7.73;57.67;101958.66;4936903;28;97465;-78
2022/02/08 00:13:59;;;;;;;17.55;2.45;;;;;;;7.06;59.48;101957.13;4939674;28;99753;-79
2022/02/08 00:16:26;;;;;;;25.52;2.90;;;;;;;7.74;58.34;101965.69;4934455;28;98465;-78
2022/02/08 00:18:52;;;;;;;21.00;2.80;;;;;;;7.83;57.72;101969.13;4937276;28;96875;-78
2022/02/08 00:21:19;;;;;;;22.52;2.45;;;;;;;7.82;57.63;101971.75;4940825;28;98515;-78
2022/02/08 00:23:45;;;;;;;17.98;2.80;;;;;;;8.17;56.66;101950.50;4935421;28;98502;-79
2022/02/08 00:26:13;;;;;;;22.48;2.22;;;;;;;8.15;56.48;101970.69;4936986;28;98899;-78
2022/02/08 00:28:39;;;;;;;18.02;2.17;;;;;;;8.05;56.46;101964.63;4940336;28;97105;-79
2022/02/08 00:31:06;;;;;;;17.60;3.33;;;;;;;8.42;55.88;101967.03;4938176;28;97218;-79
2022/02/08 00:33:32;;;;;;;19.73;2.17;;;;;;;8.35;55.69;101967.09;4938698;28;98013;-79
2022/02/08 00:35:59;;;;;;;20.52;2.47;;;;;;;8.46;55.18;101968.78;4939054;28;99958;-79
2022/02/08 00:38:25;;;;;;;18.08;2.65;;;;;;;8.67;54.57;101965.97;4939163;28;96811;-79
2022/02/08 00:40:57;;;;;;;15.90;2.40;;;;;;;8.50;55.09;101981.03;4943898;28;97128;-79
2022/02/08 00:43:30;;;;;;;16.27;2.42;;;;;;;7.56;57.90;101983.28;4944763;28;98237;-77
2022/02/08 00:46:01;;;;;;;19.35;2.70;;;;;;;8.12;56.56;101979.50;4942283;28;99184;-81
2022/02/08 00:48:31;;;;;;;18.33;2.28;;;;;;;7.48;58.43;101976.31;4941016;28;97358;-78
2022/02/08 00:50:58;;;;;;;21.98;2.63;;;;;;;8.26;56.13;101988.22;4938941;28;96867;-79
2022/02/08 00:53:24;;;;;;;19.48;2.13;;;;;;;8.37;55.39;101986.41;4943126;28;99127;-79
2022/02/08 00:55:51;;;;;;;18.13;2.38;;;;;;;7.95;56.50;102005.91;4942687;28;99411;-79
2022/02/08 00:58:17;;;;;;;19.65;2.33;;;;;;;8.28;55.70;101988.16;4943386;28;97753;-79
2022/02/08 01:00:45;;;;;;;21.90;3.28;;;;;;;8.01;56.27;101989.19;4944231;28;96836;-79
2022/02/08 01:03:11;;;;;;;21.17;2.42;;;;;;;8.27;55.99;101995.19;4933698;28;98993;-78
2022/02/08 01:05:43;;;;;;;17.00;1.73;;;;;;;8.46;54.94;101989.88;4938320;28;99286;-78
2022/02/08 01:08:09;;;;;;;23.30;2.78;;;;;;;8.63;54.40;101985.34;4939867;28;96744;-78
2022/02/08 01:10:38;;;;;;;23.75;3.17;;;;;;;8.44;54.73;101962.66;4939182;28;96926;-79
2022/02/08 01:13:05;;;;;;;20.13;2.47;;;;;;;8.43;54.91;101981.97;4937039;28;99195;-78
2022/02/08 01:15:31;;;;;;;18.90;2.20;;;;;;;8.51;54.70;101977.53;4938577;28;97647;-79
2022/02/08 01:18:00;;;;;;;18.27;2.85;;;;;;;8.63;54.59;101974.78;4936132;28;97174;-78
2022/02/08 01:20:32;;;;;;;19.05;3.28;;;;;;;8.39;55.05;101979.38;4942937;28;96802;-79
2022/02/08 01:23:02;;;;;;;22.55;2.47;;;;;;;8.05;55.31;101972.53;4939442;28;99992;-78
2022/02/08 01:25:32;;;;;;;15.45;1.92;;;;;;;8.25;55.55;101980.31;4939209;28;102099;-78
2022/02/08 01:28:07;;;;;;;17.23;2.10;;;;;;;8.23;55.17;101982.94;4932029;28;96800;-79
2022/02/08 01:30:45;;;;;;;13.85;1.95;;;;;;;8.35;54.94;101980.25;4933231;28;97507;-80
2022/02/08 01:33:38;;;;;;;22.92;2.80;;;;;;;8.52;54.19;101984.56;4942557;28;99498;-79
2022/02/08 01:39:10;;;;;;;14.45;1.73;;;;;;;8.26;55.14;101982.94;4884641;28;97021;-78
2022/02/08 01:41:55;;;;;;;11.93;2.55;;;;;;;7.96;55.68;101978.72;4931116;28;96955;-78
2022/02/08 01:44:28;;;;;;;17.45;2.33;;;;;;;7.58;56.87;101978.88;4940704;28;99474;-81
2022/02/08 01:47:07;;;;;;;14.68;2.00;;;;;;;7.99;55.76;101983.09;4937831;28;98824;-79
2022/02/08 01:49:38;;;;;;;21.58;2.38;;;;;;;7.96;55.71;101989.25;4932659;28;96871;-80
2022/02/08 01:52:07;;;;;;;13.05;2.17;;;;;;;8.10;55.42;101983.03;4931616;28;97185;-78
2022/02/08 01:54:34;;;;;;;22.45;2.70;;;;;;;7.57;57.19;101985.03;4942080;28;99007;-78
2022/02/08 01:57:00;;;;;;;16.60;2.10;;;;;;;7.78;56.22;101983.19;4943192;28;100496;-78
2022/02/08 01:59:27;;;;;;;14.73;1.77;;;;;;;7.76;56.62;101982.31;4937463;28;96848;-77
2022/02/08 02:01:54;;;;;;;22.33;1.98;;;;;;;7.95;55.90;101987.47;4932317;28;97500;-77
2022/02/08 02:04:20;;;;;;;16.65;1.75;;;;;;;8.06;55.84;101978.69;4938812;28;99286;-78
2022/02/08 02:06:48;;;;;;;11.77;1.60;;;;;;;7.90;55.73;101978.75;4933286;28;99526;-77
2022/02/08 02:09:14;;;;;;;19.17;2.28;;;;;;;8.08;54.94;101969.88;4931380;28;97289;-77
2022/02/08 02:11:41;;;;;;;17.48;2.58;;;;;;;7.68;56.37;101974.44;4936899;28;97578;-77
2022/02/08 02:14:07;;;;;;;24.42;3.03;;;;;;;7.73;56.12;101974.44;4927209;28;99365;-77
2022/02/08 02:16:44;;;;;;;16.08;2.38;;;;;;;7.89;55.99;101982.25;4934134;28;99326;-77
2022/02/08 02:19:11;;;;;;;19.08;1.58;;;;;;;8.04;54.97;101983.06;4935920;28;97379;-77
2022/02/08 02:21:37;;;;;;;19.60;2.88;;;;;;;8.09;54.70;101983.91;4938305;28;96682;-77
2022/02/08 02:24:06;;;;;;;14.60;1.90;;;;;;;7.93;55.16;101984.00;4938570;28;102239;-77
2022/02/08 02:26:33;;;;;;;19.30;2.88;;;;;;;8.04;54.76;101978.69;4937843;28;99209;-78
2022/02/08 02:28:59;;;;;;;24.73;2.95;;;;;;;7.95;55.23;101981.34;4935144;28;99571;-77
2022/02/08 02:31:25;;;;;;;16.00;2.53;;;;;;;7.77;55.17;101976.19;4931054;28;96860;-76
2022/02/08 02:33:52;;;;;;;22.08;2.38;;;;;;;8.30;54.18;101974.16;4937302;28;99476;-77
2022/02/08 02:36:18;;;;;;;14.18;2.10;;;;;;;8.32;53.89;101975.03;4933190;28;99516;-78
2022/02/08 02:38:44;;;;;;;15.48;2.40;;;;;;;8.07;54.83;101968.16;4938568;28;96884;-77
2022/02/08 02:41:12;;;;;;;19.45;2.30;;;;;;;8.12;54.41;101974.25;4939433;28;98086;-77
2022/02/08 02:43:40;;;;;;;23.40;3.30;;;;;;;8.14;54.51;101972.47;4940725;28;98871;-79
2022/02/08 02:46:06;;;;;;;14.25;2.17;;;;;;;8.28;54.40;101969.75;4943868;28;99538;-78
2022/02/08 02:48:33;;;;;;;14.27;2.33;;;;;;;8.39;53.79;101963.56;4947812;28;96809;-78
2022/02/08 02:50:59;;;;;;;16.20;2.03;;;;;;;8.13;54.18;101960.22;4942511;28;96664;-79
2022/02/08 02:53:26;;;;;;;16.23;2.35;;;;;;;8.43;53.50;101950.34;4939878;28;98352;-79
2022/02/08 02:55:53;;;;;;;21.13;2.70;;;;;;;8.26;53.90;101948.72;4936365;28;99361;-78
2022/02/08 02:58:24;;;;;;;14.05;2.30;;;;;;;8.18;54.05;101941.75;4944924;28;96813;-78
2022/02/08 03:01:04;;;;;;;23.33;2.25;;;;;;;8.38;53.49;101937.25;4940521;28;96974;-78
2022/02/08 03:03:44;;;;;;;20.25;2.08;;;;;;;8.35;53.33;101939.88;4946511;28;97929;-78
2022/02/08 03:19:58;;;;;;;21.05;2.58;;;;;;;8.39;53.04;101939.88;4936450;28;96719;-78
2022/02/08 03:22:24;;;;;;;16.73;2.97;;;;;;;8.19;53.56;101940.84;4932956;28;96916;-78
2022/02/08 03:24:50;;;;;;;21.20;2.63;;;;;;;8.46;52.62;101918.75;4930975;28;101739;-79
2022/02/08 03:27:17;;;;;;;16.38;2.60;;;;;;;8.31;52.85;101932.91;4928278;28;99452;-78
2022/02/08 03:29:45;;;;;;;16.90;2.97;;;;;;;8.08;53.47;101935.63;4935151;28;96714;-78
2022/02/08 03:32:11;;;;;;;17.98;3.53;;;;;;;7.97;53.50;101927.81;4930762;28;97488;-78
2022/02/08 03:34:37;;;;;;;18.25;2.67;;;;;;;8.31;52.91;101933.78;4935240;28;99121;-77
2022/02/08 03:37:04;;;;;;;21.80;3.03;;;;;;;8.44;52.70;101924.03;4938516;28;99034;-77
2022/02/08 03:39:35;;;;;;;19.58;3.00;;;;;;;8.17;52.64;101932.97;4927537;28;96766;-78
2022/02/08 03:42:08;;;;;;;18.40;3.05;;;;;;;8.00;53.07;101935.72;4931396;28;97307;-78
2022/02/08 03:44:35;;;;;;;18.38;2.88;;;;;;;7.87;54.17;101936.66;4935864;28;99250;-77
2022/02/08 03:47:06;;;;;;;14.60;2.72;;;;;;;8.06;53.03;101937.44;4935919;28;99587;-78
2022/02/08 03:49:33;;;;;;;19.80;3.33;;;;;;;8.30;52.74;101936.38;4934978;28;97413;-78
2022/02/08 03:52:04;;;;;;;18.33;3.25;;;;;;;8.44;52.31;101931.03;4929874;28;96868;-77
2022/02/08 03:54:31;;;;;;;17.70;2.65;;;;;;;8.27;52.57;101920.63;4932357;28;99638;-78
2022/02/08 03:56:57;;;;;;;14.75;2.75;;;;;;;8.43;51.63;101921.38;4934136;28;98891;-77
2022/02/08 03:59:24;;;;;;;14.13;2.53;;;;;;;8.67;51.10;101921.16;4931542;28;96815;-78
2022/02/08 04:02:25;;;;;;;17.80;3.00;;;;;;;8.60;51.16;101911.59;4931169;28;98735;-79
2022/02/08 04:04:57;;;;;;;14.10;2.70;;;;;;;8.44;51.36;101909.97;4934207;28;99085;-78
2022/02/08 04:07:27;;;;;;;15.95;2.67;;;;;;;8.40;51.41;101904.72;4931076;28;96865;-78
2022/02/08 04:09:59;;;;;;;11.40;2.90;;;;;;;8.41;51.48;101910.84;4935658;28;96840;-79
2022/02/08 04:12:33;;;;;;;16.33;2.85;;;;;;;7.88;52.54;101905.94;4941460;28;97239;-79
2022/02/08 04:15:16;;;;;;;10.77;2.22;;;;;;;8.33;51.51;101895.16;4933958;28;99160;-78
2022/02/08 04:17:58;;;;;;;16.05;2.60;;;;;;;8.37;51.57;101907.38;4932509;28;98786;-79
2022/02/08 04:34:27;;;;;;;14.35;2.55;;;;;;;8.51;50.20;101874.78;4928927;28;96854;-77
2022/02/08 04:39:52;;;;;;;13.15;2.15;;;;;;;8.71;50.00;101867.56;4907939;28;97698;-79
2022/02/08 04:42:24;;;;;;;16.13;1.85;;;;;;;8.47;50.40;101870.44;4938258;28;96889;-79
2022/02/08 04:45:00;;;;;;;17.08;2.75;;;;;;;8.78;50.02;101872.78;4937018;28;98649;-78
2022/02/08 04:47:32;;;;;;;12.98;2.03;;;;;;;8.79;49.37;101863.09;4935541;28;98949;-77
2022/02/08 04:49:58;;;;;;;9.70;1.60;;;;;;;8.90;49.57;101858.59;4938323;28;98933;-78
2022/02/08 04:52:28;;;;;;;17.70;2.42;;;;;;;8.86;49.44;101858.63;4934620;28;98797;-77
2022/02/08 04:55:03;;;;;;;18.45;2.50;;;;;;;8.69;49.36;101858.78;4936349;28;97032;-78
2022/02/08 04:57:36;;;;;;;14.60;2.10;;;;;;;8.82;49.09;101852.50;4935189;28;99006;-77
2022/02/08 05:00:19;;;;;;;13.07;2.22;;;;;;;8.67;49.42;101848.25;4934271;28;100723;-79
2022/02/08 05:35:45;;;;;;;15.90;2.92;;;;;;;8.95;49.22;101801.41;4908412;28;98896;-79
2022/02/08 05:44:00;;;;;;;10.10;2.97;;;;;;;9.03;48.97;101807.47;4940982;28;99011;-79
2022/02/08 05:46:51;;;;;;;13.80;2.90;;;;;;;8.98;48.84;101809.28;4933702;28;99414;-78
2022/02/08 05:49:25;;;;;;;17.23;2.90;;;;;;;8.83;49.84;101812.09;4937388;28;97077;-78
2022/02/08 05:54:51;;;;;;;8.50;3.33;;;;;;;8.75;50.74;101799.00;4938013;28;99584;-79
2022/02/08 05:57:19;;;;;;;19.63;3.47;;;;;;;8.74;51.59;101793.72;4931329;28;99414;-79
2022/02/08 05:59:46;;;;;;;21.80;4.72;;;;;;;9.06;50.66;101794.22;4935377;28;96929;-79
2022/02/08 06:02:12;;;;;;;18.95;3.70;;;;;;;9.30;50.31;101792.16;4938877;28;102239;-78
2022/02/08 06:04:40;;;;;;;23.45;4.03;;;;;;;8.90;51.62;101791.81;4939978;28;99685;-79
2022/02/08 06:07:06;;;;;;;20.35;4.28;;;;;;;9.06;50.94;101796.84;4933813;28;97264;-82
2022/02/08 06:09:33;;;;;;;18.70;4.03;;;;;;;9.12;50.83;101796.78;4937646;28;97165;-80
2022/02/08 06:11:59;;;;;;;16.85;4.65;;;;;;;9.21;50.70;101793.16;4938509;28;100809;-82
2022/02/08 06:14:29;;;;;;;23.63;4.82;;;;;;;9.34;50.43;101789.47;4938176;28;98821;-81
2022/02/08 06:16:55;;;;;;;18.40;3.80;;;;;;;8.95;51.36;101789.97;4929414;28;96935;-80
2022/02/08 06:19:22;;;;;;;17.10;4.28;;;;;;;9.14;50.57;101784.44;4931074;28;97013;-80
2022/02/08 06:21:48;;;;;;;21.17;4.65;;;;;;;9.11;50.99;101781.88;4930414;28;99477;-77
2022/02/08 06:24:14;;;;;;;19.58;4.05;;;;;;;9.40;50.54;101778.81;4933629;28;98908;-77
2022/02/08 06:26:41;;;;;;;16.15;4.15;;;;;;;9.36;50.23;101778.91;4926944;28;96813;-78
2022/02/08 06:29:12;;;;;;;12.63;4.10;;;;;;;9.33;50.21;101771.00;4928866;28;98793;-78
2022/02/08 06:31:41;;;;;;;19.77;4.60;;;;;;;9.43;49.87;101767.38;4928564;28;98841;-77
2022/02/08 06:34:07;;;;;;;16.45;3.95;;;;;;;9.41;50.38;101766.50;4939345;28;99670;-77
2022/02/08 06:36:34;;;;;;;18.85;4.38;;;;;;;9.37;50.19;101763.06;4930305;28;98611;-77
2022/02/08 06:39:01;;;;;;;13.45;4.03;;;;;;;9.12;50.83;101761.66;4932407;28;97266;-77
2022/02/08 06:41:27;;;;;;;15.80;4.20;;;;;;;9.38;50.23;101764.81;4930345;28;99134;-78
2022/02/08 06:43:53;;;;;;;17.50;5.20;;;;;;;9.04;50.76;101769.66;4931952;28;98810;-77
2022/02/08 06:46:20;;;;;;;17.38;4.63;;;;;;;9.12;50.99;101772.19;4928336;28;97870;-79
2022/02/08 06:48:48;;;;;;;18.15;4.93;;;;;;;9.24;50.69;101768.53;4928134;28;96871;-78
2022/02/08 06:51:14;;;;;;;20.58;5.45;;;;;;;9.28;50.67;101778.13;4933432;28;99103;-78
2022/02/08 06:53:42;;;;;;;14.93;4.30;;;;;;;9.29;50.92;101764.03;4928912;28;98892;-77
2022/02/08 06:56:08;;;;;;;20.83;4.47;;;;;;;9.34;50.52;101772.75;4923974;28;97891;-79
2022/02/08 06:58:47;;;;;;;18.15;4.65;;;;;;;9.30;50.83;101776.34;4932766;28;97324;-78
2022/02/08 07:01:14;;;;;;;16.80;5.15;;;;;;;9.36;50.61;101771.84;4931761;28;98935;-78
2022/02/08 07:03:41;;;;;;;15.70;5.10;;;;;;;9.33;50.61;101771.88;4926479;28;99379;-77
2022/02/08 07:06:09;;;;;;;12.35;4.20;;;;;;;9.39;50.41;101770.91;4932913;28;96817;-78
2022/02/08 07:08:35;;;;;;;22.42;5.60;;;;;;;9.41;50.48;101779.69;4932295;28;98054;-80
2022/02/08 07:11:01;;;;;;;17.95;4.53;;;;;;;9.20;50.86;101765.91;4932834;28;97624;-81
2022/02/08 07:13:29;;;;;;;22.02;4.85;;;;;;;9.30;51.08;101771.94;4935039;28;99734;-81
2022/02/08 07:15:55;;;;;;;23.23;5.38;;;;;;;9.23;51.41;101774.69;4933005;28;96703;-81
2022/02/08 07:18:21;;;;;;;14.50;4.65;;;;;;;9.23;51.20;101769.41;4937170;28;96791;-80
2022/02/08 07:20:48;;;;;;;17.05;4.95;;;;;;;9.26;51.50;101796.59;4935170;28;98910;-79
2022/02/08 07:39:17;;;;;;;19.05;5.75;;;;;;;8.73;57.62;101758.59;3168026;23;98331;-83
2022/02/08 07:41:52;;;;;;;24.67;5.90;;;;;;;9.03;56.68;101746.81;4939968;28;98795;-83
2022/02/08 07:44:19;;;;;;;24.95;6.57;;;;;;;8.80;57.46;101748.84;4934022;28;97727;-80
2022/02/08 07:46:46;;;;;;;21.63;5.95;;;;;;;9.11;57.03;101746.72;4928558;28;97663;-81
2022/02/08 07:49:13;;;;;;;27.45;6.80;;;;;;;9.38;56.21;101742.81;4932336;28;97076;-81
2022/02/08 07:51:41;;;;;;;19.25;5.15;;;;;;;9.17;57.04;101744.00;4934110;28;100597;-81
2022/02/08 07:54:09;;;;;;;20.30;5.38;;;;;;;9.24;56.88;101747.41;5040824;22;101094;-77
2022/02/08 07:56:39;;;;;;;16.27;6.03;;;;;;;9.27;56.90;101744.72;4957314;28;96880;-79
2022/02/08 07:59:06;;;;;;;24.50;6.88;;;;;;;9.03;58.10;101748.59;4958405;28;98386;-76
2022/02/08 08:01:32;;;;;;;19.10;5.65;;;;;;;9.45;57.06;101742.69;4955912;28;99049;-76
2022/02/08 08:03:59;;;;;;;18.15;5.85;;;;;;;9.43;57.39;101736.59;4959953;28;98904;-76
2022/02/08 08:06:25;;;;;;;27.58;6.85;;;;;;;9.32;58.11;101749.03;4943979;28;99269;-77
2022/02/08 08:08:52;;;;;;;20.90;5.22;;;;;;;9.56;57.16;101731.97;4957962;28;96894;-76
2022/02/08 08:11:22;;;;;;;19.20;5.20;;;;;;;9.12;58.50;101732.66;4944025;28;99218;-77
2022/02/08 08:13:51;;;;;;;17.38;5.50;;;;;;;9.20;58.60;101743.94;4946597;28;99121;-77
2022/02/08 08:16:30;;;;;;;19.23;5.72;;;;;;;9.39;58.31;101739.25;4942695;28;96810;-77
2022/02/08 08:19:01;;;;;;;16.45;4.93;;;;;;;9.39;58.19;101736.63;4953109;28;96841;-75
2022/02/08 08:21:28;;;;;;;18.20;6.90;;;;;;;9.58;57.71;101746.03;4947608;28;101895;-76
2022/02/08 08:23:55;;;;;;;20.15;4.97;;;;;;;9.59;57.86;101745.13;4959942;28;98914;-78
2022/02/08 08:26:23;;;;;;;19.40;5.88;;;;;;;9.38;58.80;101727.00;4942297;28;98686;-78
2022/02/08 08:28:50;;;;;;;12.95;5.30;;;;;;;9.29;59.48;101732.41;4947088;28;97771;-77
2022/02/08 08:31:17;;;;;;;16.30;4.80;;;;;;;9.46;59.05;101736.53;4946182;28;98074;-77
2022/02/08 08:33:44;;;;;;;14.88;4.75;;;;;;;9.40;59.11;101741.00;4946576;28;101567;-78
2022/02/08 08:36:12;;;;;;;15.00;5.18;;;;;;;9.33;59.53;101749.91;4942436;28;96847;-77
2022/02/08 08:38:38;;;;;;;12.90;5.72;;;;;;;9.12;nan;101738.75;4947697;28;96869;-80
2022/02/08 08:41:18;;;;;;;16.38;5.32;;;;;;;9.19;60.85;101747.47;4948912;28;99112;-76
2022/02/08 08:49:46;;;;;;;15.88;4.53;;;;;;;9.38;60.31;101748.09;4942725;28;97478;-78
2022/02/08 08:52:13;;;;;;;10.35;4.82;;;;;;;9.56;59.83;101747.81;4944561;28;99182;-77
2022/02/08 08:54:40;;;;;;;12.13;4.88;;;;;;;9.34;60.85;101741.09;4945128;28;99045;-77
2022/02/08 08:57:06;;;;;;;14.68;5.18;;;;;;;9.34;60.58;101728.78;4947649;28;96735;-78
2022/02/08 08:59:34;;;;;;;13.10;5.15;;;;;;;9.66;60.23;101714.22;4939644;28;97178;-75
2022/02/08 09:02:00;;;;;;;22.83;6.03;;;;;;;9.51;60.80;101723.28;4942474;28;99004;-74
2022/02/08 09:04:33;;;;;;;12.35;5.00;;;;;;;9.32;60.89;101727.09;4942437;28;99425;-77
2022/02/08 09:06:59;;;;;;;16.48;5.80;;;;;;;9.81;59.55;101735.09;4946593;28;97211;-76
2022/02/08 09:09:27;;;;;;;13.88;5.15;;;;;;;9.55;60.21;101740.78;4948166;28;96839;-77
2022/02/08 09:12:06;;;;;;;17.48;5.75;;;;;;;9.64;59.80;101748.56;4944344;28;98964;-76
2022/02/08 09:14:46;;;;;;;18.15;5.63;;;;;;;9.56;61.14;101737.25;4939771;28;98979;-74
2022/02/08 09:17:37;;;;;;;16.33;5.25;;;;;;;9.87;59.90;101714.75;4944474;28;96800;-77
2022/02/08 09:23:13;;;;;;;11.65;5.30;;;;;;;9.86;59.81;101698.91;4952118;28;97839;-78
2022/02/08 09:26:05;;;;;;;9.40;4.75;;;;;;;9.74;60.76;101721.13;4955069;28;98854;-77
2022/02/08 09:28:42;;;;;;;9.60;5.05;;;;;;;10.07;59.73;101714.38;4941194;28;96828;-77
2022/02/08 09:31:14;;;;;;;;;;;;;;;10.45;58.34;101724.25;4950480;28;98547;-77
2022/02/08 09:33:41;;;;;;;12.88;4.80;;;;;;;9.91;60.11;101718.22;4950117;28;98154;-77
2022/02/08 09:36:07;;;;;;;14.13;5.15;;;;;;;10.18;59.69;101717.72;4950759;28;97988;-79
2022/02/08 09:38:35;;;;;;;11.90;5.03;;;;;;;10.07;59.73;101719.66;4945424;28;97228;-78
2022/02/08 09:41:02;;;;;;;11.02;4.75;;;;;;;9.74;61.28;101726.41;4942185;28;96823;-78
2022/02/08 09:43:32;;;;;;;14.38;5.60;;;;;;;10.13;60.21;101729.25;4947274;28;99620;-79
2022/02/08 09:46:01;;;;;;;30.48;5.95;;;;;;;10.09;60.64;101722.28;4942067;28;98857;-77
2022/02/08 09:48:38;;;;;;;10.82;5.03;;;;;;;10.29;59.77;101720.19;4944994;28;96761;-77
2022/02/08 09:51:05;;;;;;;16.98;5.95;;;;;;;10.30;59.52;101706.09;4943235;28;97273;-79
2022/02/08 09:53:34;;;;;;;11.82;4.97;;;;;;;10.48;59.70;101711.00;4937699;28;98496;-77
2022/02/08 09:56:03;;;;;;;11.32;5.32;;;;;;;10.33;59.89;101717.44;4948382;28;99003;-77
2022/02/08 09:58:29;;;;;;;9.00;5.47;;;;;;;10.41;59.70;101714.66;4943333;28;96812;-77
2022/02/08 10:01:07;;;;;;;15.57;5.88;;;;;;;10.73;58.55;101728.09;4942367;28;97218;-78
2022/02/08 10:03:37;;;;;;;16.50;5.80;;;;;;;10.65;59.12;101711.53;4950469;28;98871;-77
2022/02/08 10:06:11;;;;;;;12.32;5.53;;;;;;;10.85;58.13;101705.81;4941594;28;98816;-77
2022/02/08 10:08:37;;;;;;;12.77;5.90;;;;;;;10.39;59.87;101705.88;4948110;28;97433;-77
2022/02/08 10:11:13;;;;;;;9.20;5.20;;;;;;;10.41;60.18;101706.75;4943082;28;97413;-76
2022/02/08 10:13:58;;;;;;;9.33;5.57;;;;;;;10.27;60.65;101695.56;4952179;28;98798;-77
2022/02/08 10:22:11;;;;;;;9.07;5.35;;;;;;;10.73;60.05;101682.28;4935676;28;96921;-77
2022/02/08 10:24:48;;;;;;;13.43;5.50;;;;;;;10.83;59.88;101677.69;4948654;28;102009;-79
2022/02/08 10:27:26;;;;;;;11.73;4.85;;;;;;;10.65;60.23;101687.75;4941343;28;98878;-77
2022/02/08 10:38:06;;;;;;;10.98;5.20;;;;;;;10.29;61.42;101667.34;4944446;28;98997;-78
2022/02/08 10:40:36;;;;;;;10.68;4.93;;;;;;;10.66;60.75;101673.63;4960236;28;96760;-78
2022/02/08 10:43:04;;;;;;;10.73;4.75;;;;;;;10.65;60.80;101671.88;4955700;28;97201;-78
2022/02/08 10:45:33;;;;;;;34.38;5.47;;;;;;;9.93;61.96;101672.38;4943590;28;98926;-78
2022/02/08 10:48:03;;;;;;;12.52;4.80;;;;;;;10.63;60.93;101663.09;4942873;28;100952;-78
2022/02/08 10:50:33;;;;;;;10.43;5.13;;;;;;;10.62;60.82;101669.31;4947093;28;97696;-78
2022/02/08 10:53:02;;;;;;;8.30;5.00;;;;;;;10.97;59.80;101671.16;4949588;28;96936;-79
2022/02/08 10:55:39;;;;;;;10.43;5.18;;;;;;;10.71;60.24;101662.94;4960792;28;97810;-77
2022/02/08 10:58:15;;;;;;;;;;;;;;;10.88;60.08;101660.81;4949352;28;97659;-80
2022/02/08 11:00:47;;;;;;;9.77;5.50;;;;;;;11.04;59.77;101659.56;4954690;28;96822;-78
2022/02/08 11:03:18;;;;;;;14.52;5.90;;;;;;;10.74;60.32;101649.66;4940670;28;97631;-77
2022/02/08 11:06:07;;;;;;;10.40;6.38;;;;;;;10.46;61.31;101649.38;4960458;28;99059;-77
2022/02/08 11:11:57;;;;;;;12.23;5.70;;;;;;;10.68;60.92;101642.75;4953587;28;97716;-77
2022/02/08 11:14:40;;;;;;;12.00;6.18;;;;;;;11.17;59.66;101641.63;4950324;28;98047;-77
2022/02/08 11:17:45;;;;;;;16.73;8.13;;;;;;;11.08;60.06;101647.16;4945787;28;99049;-77
2022/02/08 11:20:19;;;;;;;13.77;7.13;;;;;;;10.74;61.47;101655.84;4943634;28;98585;-77
2022/02/08 11:22:54;;;;;;;13.63;7.22;;;;;;;10.78;61.00;101652.22;4942904;28;97142;-77
2022/02/08 11:25:25;;;;;;;13.18;7.28;;;;;;;10.35;62.83;101644.34;4943125;28;96900;-77
2022/02/08 11:27:56;;;;;;;17.60;8.82;;;;;;;10.95;61.07;101653.63;4936419;28;99197;-78
2022/02/08 11:30:35;;;;;;;14.15;7.80;;;;;;;10.85;61.22;101649.41;4948427;28;99651;-79
2022/02/08 11:33:13;;;;;;;14.75;8.63;;;;;;;10.93;61.22;101658.06;4949036;28;98052;-79
2022/02/08 11:44:22;;;;;;;16.55;9.25;;;;;;;10.70;62.20;101664.72;4952767;28;96912;-78
2022/02/08 11:47:12;;;;;;;17.25;10.15;;;;;;;10.41;63.68;101667.09;4945118;28;96952;-79
2022/02/08 11:50:06;;;;;;;18.48;9.40;;;;;;;10.63;63.13;101665.75;4962205;28;100794;-78
2022/02/08 11:52:52;;;;;;;16.45;9.38;;;;;;;10.77;62.96;101676.03;4943382;28;98576;-78
2022/02/08 11:55:47;;;;;;;19.40;9.60;;;;;;;11.14;61.69;101661.09;4945880;28;98541;-78
2022/02/08 11:58:29;;;;;;;18.27;10.50;;;;;;;10.62;63.09;101665.81;4952573;28;97027;-78
2022/02/08 12:01:04;;;;;;;18.83;10.13;;;;;;;10.89;62.47;101659.06;4948329;28;97802;-78
2022/02/08 12:06:51;;;;;;;18.20;9.50;;;;;;;11.21;61.23;101640.66;4947125;28;99207;-78
2022/02/08 12:09:33;;;;;;;18.25;10.15;;;;;;;11.51;60.96;101639.03;4940131;28;97434;-80
2022/02/08 12:32:35;;;;;;;21.10;11.32;;;;;;;11.66;62.59;101637.78;4881028;28;96805;-79
2022/02/08 12:35:29;;;;;;;17.05;10.88;;;;;;;11.69;62.27;101630.59;4940406;28;99232;-77
2022/02/08 12:58:01;;;;;;;20.35;10.10;;;;;;;12.02;61.54;101625.34;4945608;28;97831;-79
2022/02/08 13:00:50;;;;;;;;;;;;;;;;;;;;;
2022/02/08 13:03:57;;;;;;;24.63;10.05;;;;;;;12.04;61.87;101623.53;4952799;28;117776;-77
2022/02/08 13:19:03;;;;;;;23.08;10.48;;;;;;;11.83;64.09;101627.63;4952837;28;97593;-77
2022/02/08 14:03:37;;;;;;;18.92;10.73;;;;;;;11.78;66.08;101629.53;4962967;28;97228;-81
2022/02/08 14:06:23;;;;;;;17.88;10.05;;;;;;;12.25;65.51;101631.75;4942773;28;98788;-80
2022/02/08 14:09:12;;;;;;;22.70;10.57;;;;;;;12.04;65.93;101627.06;4961782;28;100573;-81
2022/02/08 14:14:39;;;;;;;22.45;11.73;;;;;;;11.79;67.58;101632.16;4896540;28;96835;-81
2022/02/08 14:23:04;;;;;;;18.48;11.80;;;;;;;11.57;68.56;101647.69;4953517;28;97366;-82
2022/02/08 14:25:43;;;;;;;19.13;10.98;;;;;;;12.24;66.28;101640.63;4953139;28;97142;-82
2022/02/08 14:31:04;;;;;;;21.55;10.85;;;;;;;12.25;66.04;101644.13;4959601;28;96692;-81
2022/02/08 14:34:03;;;;;;;18.40;10.52;;;;;;;11.66;68.51;101649.22;4951931;28;96733;-81
2022/02/08 14:36:49;;;;;;;25.13;11.48;;;;;;;12.06;66.85;101648.22;4960889;28;96791;-80
2022/02/08 15:07:53;;;;;;;17.20;9.20;;;;;;;12.06;66.14;101664.09;4964291;28;96477;-79
2022/02/08 15:10:18;;;;;;;13.70;7.90;;;;;;;12.02;66.24;101655.34;4969010;28;95958;-80
2022/02/08 15:12:51;;;;;;;14.00;7.38;;;;;;;12.14;65.72;101665.63;4967169;28;98488;-80
2022/02/08 15:15:26;;;;;;;11.60;7.30;;;;;;;12.21;65.64;101664.53;4973218;28;100009;-79
2022/02/08 15:17:52;;;;;;;10.82;7.00;;;;;;;12.02;65.82;101660.66;4974388;28;95921;-80
2022/02/08 15:20:23;;;;;;;14.75;7.10;;;;;;;12.12;65.12;101667.47;4971629;28;97158;-80
2022/02/08 15:22:56;;;;;;;12.93;7.10;;;;;;;12.37;64.84;101672.94;4969680;28;99201;-80
2022/02/08 15:25:22;;;;;;;15.80;6.40;;;;;;;12.10;65.60;101673.69;4966224;28;98083;-79
2022/02/08 15:27:52;;;;;;;11.95;6.20;;;;;;;12.14;65.26;101691.28;4967682;28;96706;-81
2022/02/08 15:30:18;;;;;;;9.05;6.18;;;;;;;12.33;65.01;101688.06;4972540;28;96689;-80
2022/02/08 15:32:46;;;;;;;14.65;7.03;;;;;;;11.92;66.53;101680.38;4975897;28;97872;-80
2022/02/08 15:35:13;;;;;;;11.40;6.47;;;;;;;12.17;65.50;101684.09;4969904;28;99529;-79
2022/02/08 15:37:42;;;;;;;13.82;6.95;;;;;;;11.93;65.83;101695.34;4974747;28;95840;-79
2022/02/08 15:40:10;;;;;;;14.63;6.60;;;;;;;12.06;65.63;101678.22;4970396;28;98448;-81
2022/02/08 15:42:40;;;;;;;11.32;6.72;;;;;;;11.61;67.90;101711.16;4952514;28;98739;-81
2022/02/08 15:45:17;;;;;;;11.63;7.03;;;;;;;11.85;67.27;101705.25;4958094;28;101341;-81
2022/02/08 15:47:44;;;;;;;10.02;6.75;;;;;;;12.09;66.12;101703.75;4967696;28;97354;-79
2022/02/08 15:50:16;;;;;;;12.60;6.47;;;;;;;11.92;66.56;101699.78;4966715;28;96253;-79
2022/02/08 15:53:09;;;;;;;10.98;6.70;;;;;;;12.02;65.88;101710.13;4964535;28;99858;-79
2022/02/08 15:55:44;;;;;;;9.15;6.22;;;;;;;12.11;65.67;101697.50;4948922;28;99006;-80
2022/02/08 15:58:22;;;;;;;12.75;7.18;;;;;;;12.22;66.22;101710.44;4962875;28;96811;-79
2022/02/08 16:09:10;;;;;;;8.25;6.72;;;;;;;11.62;67.62;101705.78;4968784;28;96769;-80
2022/02/08 16:11:50;;;;;;;12.50;7.13;;;;;;;11.94;68.14;101718.28;4967222;28;96890;-80
2022/02/08 16:14:30;;;;;;;9.43;7.53;;;;;;;12.00;67.68;101723.41;4969614;28;98418;-79
2022/02/08 16:17:06;;;;;;;12.52;8.55;;;;;;;12.17;67.16;101720.31;4966271;28;100527;-80